Time;durP1;ratioP1;P1;durP2;ratioP2;P2;SDS_P1;SDS_P2;PMS_P1;PMS_P2;Temp;Humidity;BMP_temperature;BMP_pressure;BME280_temperature;BME280_humidity;BME280_pressure;Samples;Min_cycle;Max_cycle;Signal;HPM_P1;HPM_P2
2022/03/24 00:01:54;;;;;;;0.10;0.10;;;6.10;99.90;;;;;;5106998;28;20063;-84
2022/03/24 00:04:21;;;;;;;0.63;0.30;;;5.80;99.90;;;;;;5078195;28;20044;-84
2022/03/24 00:06:47;;;;;;;0.30;0.30;;;5.70;99.90;;;;;;5061586;28;20501;-81
2022/03/24 00:09:14;;;;;;;0.10;0.10;;;5.70;99.90;;;;;;5061661;28;20131;-84
2022/03/24 00:11:41;;;;;;;0.30;0.30;;;5.70;99.90;;;;;;5078077;28;20040;-82
2022/03/24 00:14:08;;;;;;;0.20;0.20;;;5.60;99.90;;;;;;5061747;28;20048;-81
2022/03/24 00:16:35;;;;;;;0.17;0.17;;;5.60;99.90;;;;;;5077982;28;20071;-84
2022/03/24 00:19:01;;;;;;;0.13;0.13;;;5.50;99.90;;;;;;5061537;28;20044;-84
2022/03/24 00:21:28;;;;;;;0.15;0.15;;;5.50;99.90;;;;;;5078201;28;20040;-84
2022/03/24 00:23:55;;;;;;;0.20;0.20;;;5.50;99.90;;;;;;5061449;28;20032;-84
2022/03/24 00:26:22;;;;;;;0.20;0.20;;;5.50;99.90;;;;;;5061216;28;20063;-84
2022/03/24 00:28:48;;;;;;;0.20;0.20;;;5.40;99.90;;;;;;5061430;28;20039;-84
2022/03/24 00:31:15;;;;;;;0.10;0.10;;;5.40;99.90;;;;;;5077648;28;20043;-84
2022/03/24 00:33:42;;;;;;;0.13;0.13;;;5.40;99.90;;;;;;5077517;28;20051;-84
2022/03/24 00:36:10;;;;;;;0.13;0.13;;;5.40;99.90;;;;;;5061290;28;20042;-84
2022/03/24 00:38:38;;;;;;;0.20;0.20;;;5.30;99.90;;;;;;5061338;28;20036;-84
2022/03/24 00:41:05;;;;;;;0.20;0.20;;;5.30;99.90;;;;;;5110882;28;20040;-84
2022/03/24 00:43:32;;;;;;;0.20;0.20;;;5.30;99.90;;;;;;5077630;28;20032;-84
2022/03/24 00:45:59;;;;;;;0.10;0.10;;;5.20;99.90;;;;;;5077198;28;20123;-84
2022/03/24 00:48:26;;;;;;;0.10;0.10;;;5.20;99.90;;;;;;5094267;28;20126;-84
2022/03/24 00:50:53;;;;;;;0.10;0.10;;;5.20;99.90;;;;;;5077653;28;20105;-81
2022/03/24 00:53:20;;;;;;;0.10;0.10;;;5.20;99.90;;;;;;5077042;28;20587;-85
2022/03/24 00:55:47;;;;;;;0.30;0.30;;;5.20;99.90;;;;;;5076993;28;20035;-84
2022/03/24 00:58:13;;;;;;;0.20;0.20;;;5.20;99.90;;;;;;5060794;28;20040;-84
2022/03/24 01:00:41;;;;;;;0.20;0.20;;;5.10;99.90;;;;;;5077073;28;20477;-84
2022/03/24 01:03:09;;;;;;;0.57;0.47;;;5.10;99.90;;;;;;5061071;28;20047;-81
2022/03/24 01:05:38;;;;;;;0.20;0.20;;;5.10;99.90;;;;;;5093620;28;20145;-84
2022/03/24 01:08:06;;;;;;;0.20;0.20;;;5.10;99.90;;;;;;5061301;28;20044;-84
2022/03/24 01:10:32;;;;;;;0.10;0.10;;;5.00;99.90;;;;;;5077325;28;20036;-84
2022/03/24 01:12:59;;;;;;;0.20;0.20;;;5.00;99.90;;;;;;5060323;28;20047;-81
2022/03/24 01:15:28;;;;;;;0.38;0.20;;;5.10;99.90;;;;;;5060545;28;20485;-84
2022/03/24 01:17:59;;;;;;;0.20;0.20;;;5.10;99.90;;;;;;5093359;28;20036;-81
2022/03/24 01:20:28;;;;;;;0.10;0.10;;;5.20;99.90;;;;;;5061958;28;20040;-84
2022/03/24 01:22:55;;;;;;;0.20;0.20;;;5.00;99.90;;;;;;5077051;28;20101;-84
2022/03/24 01:25:23;;;;;;;0.20;0.20;;;4.90;99.90;;;;;;5060407;28;20491;-84
2022/03/24 01:27:51;;;;;;;0.13;0.13;;;4.90;99.90;;;;;;5093380;28;20040;-81
2022/03/24 01:30:18;;;;;;;0.20;0.20;;;5.00;99.90;;;;;;5077084;28;20154;-84
2022/03/24 01:32:45;;;;;;;0.20;0.20;;;4.90;99.90;;;;;;5060152;28;20071;-84
2022/03/24 01:35:12;;;;;;;0.20;0.20;;;5.10;99.90;;;;;;5060495;28;20130;-84
2022/03/24 01:37:40;;;;;;;0.10;0.10;;;4.90;99.90;;;;;;5076657;28;20776;-83
2022/03/24 01:40:10;;;;;;;0.13;0.13;;;4.80;99.90;;;;;;5093175;28;20439;-85
2022/03/24 01:42:37;;;;;;;0.10;0.10;;;4.70;99.90;;;;;;5076719;28;20362;-84
2022/03/24 01:45:06;;;;;;;0.20;0.20;;;4.70;99.90;;;;;;5076889;28;20043;-81
2022/03/24 01:47:35;;;;;;;0.20;0.20;;;4.70;99.90;;;;;;5092984;28;20042;-81
2022/03/24 01:50:04;;;;;;;0.10;0.10;;;4.70;99.90;;;;;;5076480;28;20121;-84
2022/03/24 01:52:31;;;;;;;0.13;0.13;;;4.70;99.90;;;;;;5093241;28;20047;-81
2022/03/24 01:55:00;;;;;;;0.20;0.20;;;4.60;99.90;;;;;;5075815;28;20566;-81
2022/03/24 01:57:28;;;;;;;0.20;0.20;;;4.60;99.90;;;;;;5093073;28;20036;-81
2022/03/24 01:59:54;;;;;;;0.22;0.22;;;4.60;99.90;;;;;;5109418;28;20122;-81
2022/03/24 02:02:22;;;;;;;0.10;0.10;;;4.90;99.90;;;;;;5076581;28;20044;-81
2022/03/24 02:04:48;;;;;;;0.20;0.20;;;4.60;99.90;;;;;;5076458;28;20032;-81
2022/03/24 02:07:15;;;;;;;0.10;0.10;;;4.50;99.90;;;;;;5112501;28;20066;-81
2022/03/24 02:09:42;;;;;;;0.20;0.20;;;5.00;99.90;;;;;;5080744;28;20039;-84
2022/03/24 02:12:11;;;;;;;0.20;0.20;;;4.50;99.90;;;;;;5080184;28;20040;-81
2022/03/24 02:14:39;;;;;;;0.20;0.20;;;4.40;99.90;;;;;;5093478;28;20036;-82
2022/03/24 02:17:06;;;;;;;0.10;0.10;;;4.40;99.90;;;;;;5076331;28;20193;-81
2022/03/24 02:19:36;;;;;;;0.20;0.20;;;4.40;99.90;;;;;;5093507;28;20140;-84
2022/03/24 02:22:08;;;;;;;0.20;0.20;;;4.40;99.90;;;;;;5093135;28;20045;-84
2022/03/24 02:24:37;;;;;;;0.20;0.20;;;4.40;99.90;;;;;;5076299;28;20036;-81
2022/03/24 02:27:04;;;;;;;0.20;0.20;;;4.40;99.90;;;;;;5060625;28;20124;-81
2022/03/24 02:29:31;;;;;;;0.17;0.17;;;4.40;99.90;;;;;;5093021;28;20475;-84
2022/03/24 02:31:58;;;;;;;0.20;0.20;;;4.40;99.90;;;;;;5076410;28;20048;-84
2022/03/24 02:37:13;;;;;;;0.10;0.10;;;4.30;99.90;;;;;;5092908;28;20878;-85
2022/03/24 02:39:45;;;;;;;0.20;0.20;;;4.40;99.90;;;;;;5059803;28;20033;-84
2022/03/24 02:42:14;;;;;;;0.30;0.30;;;4.30;99.90;;;;;;5076203;28;20041;-84
2022/03/24 02:44:53;;;;;;;0.20;0.20;;;4.20;99.90;;;;;;5092700;28;20094;-85
2022/03/24 02:47:21;;;;;;;0.20;0.20;;;4.20;99.90;;;;;;5092713;28;20041;-82
2022/03/24 02:49:50;;;;;;;0.30;0.30;;;4.20;99.90;;;;;;5076410;28;20047;-82
2022/03/24 02:52:17;;;;;;;0.13;0.13;;;4.20;99.90;;;;;;5075997;28;20044;-84
2022/03/24 02:54:44;;;;;;;0.20;0.20;;;4.60;99.90;;;;;;5059372;28;20040;-81
2022/03/24 02:57:12;;;;;;;0.20;0.20;;;4.10;99.90;;;;;;5059805;28;20048;-81
2022/03/24 02:59:39;;;;;;;0.20;0.20;;;4.10;99.90;;;;;;5059218;28;20090;-81
2022/03/24 03:02:17;;;;;;;0.20;0.20;;;4.10;99.90;;;;;;5058971;28;20057;-81
2022/03/24 03:04:49;;;;;;;0.20;0.20;;;4.10;99.90;;;;;;5075859;28;20397;-80
2022/03/24 03:07:16;;;;;;;0.20;0.20;;;4.40;99.90;;;;;;5075834;28;20098;-84
2022/03/24 03:09:43;;;;;;;0.20;0.20;;;4.10;99.90;;;;;;5059452;28;20040;-81
2022/03/24 03:12:10;;;;;;;0.35;0.35;;;4.10;99.90;;;;;;5058937;28;20138;-80
2022/03/24 03:14:39;;;;;;;0.20;0.20;;;4.00;99.90;;;;;;5075668;28;20043;-84
2022/03/24 03:17:06;;;;;;;0.20;0.20;;;4.70;99.90;;;;;;5075020;28;20127;-84
2022/03/24 03:19:34;;;;;;;0.20;0.20;;;4.00;99.90;;;;;;5059039;28;20041;-84
2022/03/24 03:22:03;;;;;;;0.30;0.30;;;4.20;99.90;;;;;;5059124;28;20036;-81
2022/03/24 03:24:29;;;;;;;0.30;0.30;;;4.30;99.90;;;;;;5075776;28;20083;-81
2022/03/24 03:26:56;;;;;;;0.10;0.10;;;4.00;99.90;;;;;;5058828;28;20115;-81
2022/03/24 03:29:23;;;;;;;0.20;0.20;;;4.00;99.90;;;;;;5042601;28;20047;-84
2022/03/24 03:31:54;;;;;;;0.20;0.20;;;3.90;99.90;;;;;;5075708;28;20040;-84
2022/03/24 03:34:24;;;;;;;0.20;0.20;;;3.90;99.90;;;;;;5058813;28;20040;-81
2022/03/24 03:36:55;;;;;;;0.20;0.20;;;3.90;99.90;;;;;;5059656;28;20129;-81
2022/03/24 03:39:23;;;;;;;0.20;0.20;;;3.90;99.90;;;;;;5059398;28;20078;-84
2022/03/24 03:41:50;;;;;;;0.20;0.20;;;3.90;99.90;;;;;;5059154;28;20046;-84
2022/03/24 03:44:17;;;;;;;0.30;0.30;;;3.80;99.90;;;;;;5058696;28;20032;-84
2022/03/24 03:46:44;;;;;;;0.17;0.17;;;3.80;99.90;;;;;;5042644;28;20039;-81
2022/03/24 03:49:12;;;;;;;0.20;0.20;;;3.80;99.90;;;;;;5042104;28;20493;-85
2022/03/24 03:51:39;;;;;;;1.90;0.43;;;3.80;99.90;;;;;;5058805;28;20072;-81
2022/03/24 03:54:10;;;;;;;0.20;0.20;;;3.80;99.90;;;;;;5041898;28;20437;-84
2022/03/24 03:56:37;;;;;;;0.20;0.20;;;3.80;99.90;;;;;;5075821;28;20043;-80
2022/03/24 03:59:05;;;;;;;0.20;0.20;;;4.10;99.90;;;;;;5058343;28;20071;-81
2022/03/24 04:01:32;;;;;;;0.20;0.20;;;4.10;99.90;;;;;;5058230;28;20531;-81
2022/03/24 04:04:00;;;;;;;0.20;0.20;;;3.70;99.90;;;;;;5058318;28;20052;-81
2022/03/24 04:06:27;;;;;;;0.20;0.20;;;3.70;99.90;;;;;;5058702;28;20076;-84
2022/03/24 04:08:53;;;;;;;0.20;0.20;;;3.70;99.90;;;;;;5058298;28;20127;-84
2022/03/24 04:11:20;;;;;;;0.28;0.28;;;4.10;99.90;;;;;;5042100;28;20135;-84
2022/03/24 04:13:47;;;;;;;0.10;0.10;;;3.70;99.90;;;;;;5041623;28;20492;-84
2022/03/24 04:16:14;;;;;;;0.22;0.22;;;3.80;99.90;;;;;;5041592;28;20040;-81
2022/03/24 04:18:43;;;;;;;0.20;0.20;;;3.70;99.90;;;;;;5074552;28;20041;-81
2022/03/24 04:21:11;;;;;;;0.28;0.28;;;4.00;99.90;;;;;;5057879;28;20037;-84
2022/03/24 04:23:41;;;;;;;0.20;0.20;;;3.60;99.90;;;;;;5041876;28;20055;-84
2022/03/24 04:26:10;;;;;;;0.20;0.20;;;4.10;99.90;;;;;;5082880;28;20493;-80
2022/03/24 04:28:38;;;;;;;0.20;0.20;;;3.60;99.90;;;;;;5086272;28;20403;-83
2022/03/24 04:31:04;;;;;;;0.30;0.30;;;3.80;99.90;;;;;;5057680;28;20087;-81
2022/03/24 04:33:31;;;;;;;0.20;0.20;;;3.80;99.90;;;;;;5065439;28;20040;-84
2022/03/24 04:35:59;;;;;;;0.20;0.20;;;3.60;99.90;;;;;;5094659;28;20039;-84
2022/03/24 04:38:26;;;;;;;0.20;0.20;;;3.60;99.90;;;;;;5061359;28;20182;-81
2022/03/24 04:40:55;;;;;;;0.35;0.35;;;3.60;99.90;;;;;;5061322;28;20123;-80
2022/03/24 04:43:22;;;;;;;0.20;0.20;;;3.50;99.90;;;;;;5094246;28;20036;-84
2022/03/24 04:45:48;;;;;;;0.20;0.20;;;3.70;99.90;;;;;;5061059;28;20089;-81
2022/03/24 04:48:15;;;;;;;0.10;0.10;;;3.50;99.90;;;;;;5060746;28;20044;-80
2022/03/24 04:50:43;;;;;;;0.20;0.20;;;3.40;99.90;;;;;;5077392;28;20063;-84
2022/03/24 04:53:14;;;;;;;0.20;0.20;;;3.50;99.90;;;;;;5060986;28;20480;-80
2022/03/24 04:55:44;;;;;;;0.20;0.20;;;3.50;99.90;;;;;;5077656;28;20408;-80
2022/03/24 04:58:12;;;;;;;0.20;0.20;;;3.40;99.90;;;;;;5077473;28;20043;-81
2022/03/24 05:00:39;;;;;;;0.20;0.20;;;3.40;99.90;;;;;;5091087;28;20044;-83
2022/03/24 05:03:06;;;;;;;0.20;0.20;;;3.40;99.90;;;;;;5093289;28;20120;-84
2022/03/24 05:05:33;;;;;;;0.20;0.20;;;3.50;99.90;;;;;;5077403;28;20067;-84
2022/03/24 05:07:59;;;;;;;0.20;0.20;;;3.40;99.90;;;;;;5060777;28;20439;-80
2022/03/24 05:10:27;;;;;;;0.20;0.20;;;3.50;99.90;;;;;;5060117;28;20480;-80
2022/03/24 05:12:54;;;;;;;0.20;0.20;;;3.60;99.90;;;;;;5076879;28;20044;-83
2022/03/24 05:15:22;;;;;;;0.20;0.20;;;3.30;99.90;;;;;;5076231;28;20462;-83
2022/03/24 05:17:49;;;;;;;0.20;0.20;;;3.30;99.90;;;;;;5076744;28;20044;-84
2022/03/24 05:20:16;;;;;;;0.20;0.20;;;3.20;99.90;;;;;;5060024;28;20043;-81
2022/03/24 05:22:43;;;;;;;0.30;0.30;;;3.50;99.90;;;;;;5109844;28;20055;-80
2022/03/24 05:25:10;;;;;;;0.50;0.50;;;3.20;99.90;;;;;;5076757;28;20040;-83
2022/03/24 05:27:37;;;;;;;0.20;0.20;;;3.50;99.90;;;;;;5060283;28;20498;-84
2022/03/24 05:30:04;;;;;;;0.20;0.20;;;3.20;99.90;;;;;;5076705;28;20048;-84
2022/03/24 05:32:31;;;;;;;0.20;0.20;;;3.20;99.90;;;;;;5076578;28;20046;-84
2022/03/24 05:34:58;;;;;;;0.28;0.28;;;3.20;99.90;;;;;;5093352;28;20404;-84
2022/03/24 05:37:25;;;;;;;0.20;0.20;;;3.20;99.90;;;;;;5060458;28;20130;-84
2022/03/24 05:39:51;;;;;;;0.20;0.20;;;3.60;99.90;;;;;;5059867;28;20052;-81
2022/03/24 05:42:18;;;;;;;0.60;0.60;;;3.20;99.90;;;;;;5060125;28;20036;-81
2022/03/24 05:44:45;;;;;;;0.20;0.20;;;3.20;99.90;;;;;;5076729;28;20732;-84
2022/03/24 05:47:12;;;;;;;0.20;0.20;;;3.20;99.90;;;;;;5076362;28;20544;-84
2022/03/24 05:49:38;;;;;;;0.20;0.20;;;3.20;99.90;;;;;;5060388;28;20039;-81
2022/03/24 05:52:06;;;;;;;0.20;0.20;;;3.20;99.90;;;;;;5059819;28;20480;-81
2022/03/24 05:54:33;;;;;;;0.20;0.20;;;3.20;99.90;;;;;;5093032;28;20452;-84
2022/03/24 05:56:59;;;;;;;0.20;0.20;;;3.20;99.90;;;;;;5076714;28;20158;-84
2022/03/24 05:59:26;;;;;;;0.20;0.20;;;3.20;99.90;;;;;;5092636;28;20040;-84
2022/03/24 06:01:53;;;;;;;0.20;0.20;;;3.20;99.90;;;;;;5059406;28;20048;-81
2022/03/24 06:04:21;;;;;;;0.10;0.10;;;4.00;99.90;;;;;;5076369;28;20075;-81
2022/03/24 06:06:53;;;;;;;0.20;0.20;;;3.30;99.90;;;;;;5076354;28;20118;-84
2022/03/24 06:09:21;;;;;;;0.20;0.20;;;3.90;99.90;;;;;;5093078;28;20097;-81
2022/03/24 06:11:47;;;;;;;0.20;0.20;;;3.40;99.90;;;;;;5061560;28;20514;-80
2022/03/24 06:14:15;;;;;;;0.20;0.20;;;3.30;99.90;;;;;;5076534;28;20044;-81
2022/03/24 06:16:42;;;;;;;0.20;0.20;;;3.40;99.90;;;;;;5076648;28;20048;-84
2022/03/24 06:19:09;;;;;;;0.20;0.20;;;3.70;99.90;;;;;;5109430;28;20086;-80
2022/03/24 06:21:39;;;;;;;0.20;0.20;;;3.60;99.90;;;;;;5075901;28;20404;-81
2022/03/24 06:24:07;;;;;;;0.65;0.40;;;3.60;99.90;;;;;;5092636;28;20032;-83
2022/03/24 06:26:34;;;;;;;0.30;0.30;;;3.50;99.90;;;;;;5059313;28;20503;-84
2022/03/24 06:29:01;;;;;;;0.20;0.20;;;3.50;99.90;;;;;;5092574;28;20040;-81
2022/03/24 06:31:30;;;;;;;0.20;0.20;;;3.60;99.90;;;;;;5092437;28;20047;-84
2022/03/24 06:33:57;;;;;;;0.20;0.20;;;3.70;99.90;;;;;;5093045;28;20539;-81
2022/03/24 06:36:24;;;;;;;0.20;0.20;;;3.70;99.90;;;;;;5059809;28;20051;-81
2022/03/24 06:38:52;;;;;;;0.20;0.20;;;3.80;99.90;;;;;;5109089;28;20043;-81
2022/03/24 06:41:18;;;;;;;0.20;0.20;;;3.80;99.90;;;;;;5075894;28;20040;-83
2022/03/24 06:43:47;;;;;;;0.20;0.20;;;3.90;99.90;;;;;;5076240;28;20048;-84
2022/03/24 06:46:14;;;;;;;0.20;0.20;;;3.90;99.90;;;;;;5060153;28;20080;-81
2022/03/24 06:48:41;;;;;;;0.20;0.20;;;4.00;99.90;;;;;;5076241;28;20051;-84
2022/03/24 06:51:08;;;;;;;0.20;0.20;;;4.10;99.90;;;;;;5075878;28;20040;-84
2022/03/24 06:53:35;;;;;;;0.10;0.10;;;4.20;99.90;;;;;;5062561;28;20055;-83
2022/03/24 06:56:05;;;;;;;0.20;0.20;;;4.30;99.90;;;;;;5062975;28;20040;-81
2022/03/24 06:58:32;;;;;;;0.20;0.20;;;4.70;99.90;;;;;;5079076;28;20506;-84
2022/03/24 07:00:59;;;;;;;0.20;0.20;;;4.50;99.90;;;;;;5079550;28;20032;-81
2022/03/24 07:03:25;;;;;;;0.20;0.20;;;4.60;99.90;;;;;;5078715;28;20447;-81
2022/03/24 07:05:55;;;;;;;0.28;0.28;;;4.70;99.90;;;;;;5079286;28;20048;-83
2022/03/24 07:08:23;;;;;;;0.20;0.20;;;4.80;99.90;;;;;;5063147;28;20048;-83
2022/03/24 07:10:50;;;;;;;0.20;0.20;;;5.00;99.90;;;;;;5098257;28;20073;-81
2022/03/24 07:13:17;;;;;;;0.20;0.20;;;5.10;99.90;;;;;;5078905;28;20126;-81
2022/03/24 07:15:44;;;;;;;0.20;0.20;;;5.20;99.90;;;;;;5079331;28;20138;-84
2022/03/24 07:18:10;;;;;;;0.20;0.20;;;5.30;99.90;;;;;;5095544;28;20455;-81
2022/03/24 07:20:37;;;;;;;0.20;0.20;;;5.60;99.90;;;;;;5062126;28;20044;-81
2022/03/24 07:23:06;;;;;;;0.20;0.20;;;5.80;99.90;;;;;;5058892;28;20040;-84
2022/03/24 07:25:33;;;;;;;0.43;0.43;;;5.60;99.90;;;;;;5043509;28;20033;-81
2022/03/24 07:28:00;;;;;;;0.20;0.20;;;5.80;99.90;;;;;;5059196;28;20089;-81
2022/03/24 07:30:27;;;;;;;0.15;0.15;;;5.80;99.90;;;;;;5075058;28;20127;-84
2022/03/24 07:32:56;;;;;;;0.20;0.20;;;6.00;99.90;;;;;;5059150;28;20104;-84
2022/03/24 07:35:25;;;;;;;0.20;0.20;;;6.10;99.90;;;;;;5058588;28;20409;-81
2022/03/24 07:37:53;;;;;;;0.10;0.10;;;6.20;99.90;;;;;;5058772;28;20489;-84
2022/03/24 07:40:22;;;;;;;0.17;0.17;;;6.30;99.90;;;;;;5069096;28;20520;-84
2022/03/24 07:42:52;;;;;;;0.20;0.20;;;6.40;99.90;;;;;;5075178;28;20170;-81
2022/03/24 07:45:20;;;;;;;0.13;0.13;;;6.60;99.90;;;;;;5068963;28;20473;-84
2022/03/24 07:48:08;;;;;;;0.10;0.10;;;6.60;99.90;;;;;;5075611;28;20120;-84
2022/03/24 07:50:45;;;;;;;0.20;0.20;;;6.80;99.90;;;;;;5077042;28;20045;-81
2022/03/24 07:53:11;;;;;;;0.15;0.15;;;7.00;99.90;;;;;;5094926;28;20055;-81
2022/03/24 07:55:40;;;;;;;0.20;0.20;;;7.20;99.90;;;;;;5098114;28;20040;-81
2022/03/24 07:58:08;;;;;;;0.10;0.10;;;7.40;99.90;;;;;;5086731;28;20058;-81
2022/03/24 08:00:35;;;;;;;0.20;0.20;;;7.60;99.90;;;;;;5094868;28;20497;-81
2022/03/24 08:03:02;;;;;;;0.10;0.10;;;7.70;99.90;;;;;;5094418;28;20051;-84
2022/03/24 08:05:29;;;;;;;0.10;0.10;;;7.90;99.90;;;;;;5074203;28;20374;-81
2022/03/24 08:07:56;;;;;;;0.30;0.30;;;8.00;99.90;;;;;;5044307;28;20041;-81
2022/03/24 08:10:24;;;;;;;0.10;0.10;;;8.10;99.90;;;;;;5058299;28;20047;-81
2022/03/24 08:12:50;;;;;;;0.13;0.13;;;8.30;99.90;;;;;;5074612;28;20048;-81
2022/03/24 08:15:17;;;;;;;0.10;0.10;;;8.40;99.90;;;;;;5082373;28;20105;-81
2022/03/24 08:17:44;;;;;;;0.10;0.10;;;8.60;99.90;;;;;;5076769;28;20180;-85
2022/03/24 08:20:11;;;;;;;0.38;0.35;;;8.80;99.90;;;;;;5077509;28;20044;-85
2022/03/24 08:22:38;;;;;;;0.35;0.35;;;8.90;99.90;;;;;;5062954;28;20047;-85
2022/03/24 08:25:08;;;;;;;0.20;0.20;;;9.20;99.90;;;;;;5077560;28;20157;-80
2022/03/24 08:27:36;;;;;;;0.20;0.20;;;9.20;99.90;;;;;;5110991;28;20046;-85
2022/03/24 08:30:04;;;;;;;0.10;0.10;;;9.40;99.90;;;;;;5059152;28;20044;-85
2022/03/24 08:32:31;;;;;;;0.10;0.10;;;9.50;99.90;;;;;;5041210;28;20041;-81
2022/03/24 08:34:58;;;;;;;0.10;0.10;;;9.70;99.90;;;;;;5124244;28;20044;-81
2022/03/24 08:37:24;;;;;;;0.10;0.10;;;9.90;99.90;;;;;;5066725;28;20054;-81
2022/03/24 08:39:51;;;;;;;2.33;0.73;;;10.10;99.90;;;;;;5094000;28;20558;-81
2022/03/24 08:42:18;;;;;;;0.65;0.20;;;10.20;99.90;;;;;;5061293;28;20044;-81
2022/03/24 08:44:44;;;;;;;0.20;0.20;;;10.40;99.90;;;;;;5093806;28;20397;-85
2022/03/24 08:47:11;;;;;;;0.17;0.17;;;10.50;99.90;;;;;;5065656;28;20098;-81
2022/03/24 08:49:38;;;;;;;0.10;0.10;;;10.70;99.90;;;;;;5077500;28;20032;-85
2022/03/24 08:52:05;;;;;;;0.32;0.32;;;10.80;99.90;;;;;;5058225;28;20501;-87
2022/03/24 08:54:32;;;;;;;0.30;0.20;;;10.90;99.90;;;;;;5067327;28;20475;-82
2022/03/24 08:56:58;;;;;;;0.32;0.20;;;11.00;99.90;;;;;;5061063;28;20185;-87
2022/03/24 08:59:25;;;;;;;0.20;0.20;;;11.10;99.90;;;;;;5057915;28;20075;-85
2022/03/24 09:01:52;;;;;;;0.10;0.10;;;11.20;99.90;;;;;;5063885;28;20405;-82
2022/03/24 09:04:23;;;;;;;0.25;0.17;;;11.20;99.90;;;;;;5080328;28;20115;-81
2022/03/24 09:06:50;;;;;;;0.10;0.10;;;11.40;99.90;;;;;;5110026;28;20127;-86
2022/03/24 09:09:18;;;;;;;0.10;0.10;;;11.50;99.90;;;;;;5093845;28;20086;-81
2022/03/24 09:11:45;;;;;;;0.10;0.10;;;11.60;99.90;;;;;;5077293;28;20526;-86
2022/03/24 09:14:12;;;;;;;0.15;0.15;;;11.70;99.90;;;;;;5062602;28;20044;-82
2022/03/24 09:16:39;;;;;;;1.10;0.40;;;11.80;99.90;;;;;;5076570;28;20044;-81
2022/03/24 09:19:06;;;;;;;0.35;0.30;;;12.00;99.90;;;;;;5057147;28;20547;-81
2022/03/24 09:21:32;;;;;;;0.85;0.65;;;12.00;99.90;;;;;;5065220;28;20489;-85
2022/03/24 09:23:59;;;;;;;0.10;0.10;;;12.20;99.90;;;;;;5060749;28;20043;-81
2022/03/24 09:26:26;;;;;;;0.03;0.03;;;12.30;99.90;;;;;;5060842;28;20116;-81
2022/03/24 09:28:53;;;;;;;0.25;0.15;;;12.50;99.90;;;;;;5072541;28;20413;-81
2022/03/24 09:31:20;;;;;;;0.43;0.40;;;12.60;99.90;;;;;;5090121;28;20055;-86
2022/03/24 09:33:47;;;;;;;0.20;0.20;;;12.70;99.90;;;;;;5092630;28;20040;-82
2022/03/24 09:36:14;;;;;;;0.25;0.22;;;12.70;99.80;;;;;;5102028;28;20043;-86
2022/03/24 09:38:40;;;;;;;0.52;0.35;;;12.70;99.90;;;;;;5056828;28;20127;-85
2022/03/24 09:41:08;;;;;;;0.60;0.32;;;12.80;99.90;;;;;;5063359;28;20046;-85
2022/03/24 09:43:36;;;;;;;0.10;0.10;;;12.90;99.90;;;;;;5110297;28;20048;-81
2022/03/24 09:46:04;;;;;;;0.30;0.30;;;13.00;99.80;;;;;;5076867;28;20075;-86
2022/03/24 09:48:30;;;;;;;0.10;0.10;;;13.00;98.90;;;;;;5060464;28;20043;-85
2022/03/24 09:50:57;;;;;;;0.13;0.13;;;13.10;99.90;;;;;;5076690;28;20400;-82
2022/03/24 09:53:24;;;;;;;0.10;0.10;;;13.10;99.90;;;;;;5075348;28;20036;-81
2022/03/24 09:55:51;;;;;;;0.25;0.25;;;13.20;99.90;;;;;;5093089;28;20093;-88
2022/03/24 09:58:22;;;;;;;0.10;0.10;;;13.30;99.90;;;;;;5060349;28;20066;-81
2022/03/24 10:00:49;;;;;;;1.02;0.47;;;13.40;99.90;;;;;;5093304;28;20040;-81
2022/03/24 10:03:18;;;;;;;0.10;0.10;;;13.40;99.90;;;;;;5076104;28;20044;-81
2022/03/24 10:06:00;;;;;;;0.55;0.32;;;13.60;99.90;;;;;;5093022;28;20040;-81
2022/03/24 10:08:29;;;;;;;0.73;0.45;;;13.70;99.90;;;;;;5093689;28;20034;-87
2022/03/24 10:11:07;;;;;;;0.17;0.17;;;13.80;99.90;;;;;;5076060;28;20089;-87
2022/03/24 10:13:41;;;;;;;0.15;0.15;;;13.80;99.90;;;;;;5093498;28;20072;-87
2022/03/24 10:16:09;;;;;;;0.47;0.35;;;14.00;99.90;;;;;;5092816;28;20067;-81
2022/03/24 10:18:36;;;;;;;0.05;0.05;;;14.00;99.90;;;;;;5093052;28;20090;-81
2022/03/24 10:21:08;;;;;;;1.05;0.93;;;14.20;99.60;;;;;;5092291;28;20068;-86
2022/03/24 10:23:44;;;;;;;0.28;0.28;;;14.20;99.90;;;;;;5076840;28;20048;-87
2022/03/24 10:26:10;;;;;;;0.70;0.40;;;14.20;99.20;;;;;;5076242;28;20075;-87
2022/03/24 10:28:37;;;;;;;0.17;0.17;;;14.30;99.00;;;;;;5063377;28;20107;-87
2022/03/24 10:31:04;;;;;;;0.30;0.30;;;14.40;99.90;;;;;;5080271;28;20051;-87
2022/03/24 10:33:40;;;;;;;0.75;0.40;;;14.50;99.90;;;;;;5113378;28;20036;-81
2022/03/24 10:36:13;;;;;;;0.00;0.00;;;14.60;99.90;;;;;;5080726;28;20036;-81
2022/03/24 10:38:42;;;;;;;1.02;0.45;;;14.60;98.40;;;;;;5130476;28;20400;-87
2022/03/24 10:41:13;;;;;;;0.10;0.10;;;14.60;98.10;;;;;;5097203;28;20119;-82
2022/03/24 10:43:40;;;;;;;0.32;0.30;;;14.70;98.80;;;;;;5091702;28;20036;-81
2022/03/24 10:46:14;;;;;;;0.20;0.20;;;14.70;99.30;;;;;;5092779;28;20040;-81
2022/03/24 10:48:42;;;;;;;0.40;0.20;;;14.70;97.80;;;;;;5061292;28;20455;-81
2022/03/24 10:51:09;;;;;;;2.05;0.60;;;14.80;99.90;;;;;;5092910;28;20037;-81
2022/03/24 10:53:43;;;;;;;1.08;0.93;;;14.90;98.70;;;;;;5092524;28;20040;-85
2022/03/24 10:56:21;;;;;;;0.32;0.15;;;15.00;99.90;;;;;;5099463;28;20063;-81
2022/03/24 10:58:56;;;;;;;0.52;0.28;;;15.10;99.90;;;;;;5095889;28;20084;-86
2022/03/24 11:01:27;;;;;;;0.55;0.35;;;15.10;99.90;;;;;;5112695;28;20036;-81
2022/03/24 11:03:55;;;;;;;0.50;0.30;;;15.20;99.90;;;;;;5095231;28;20174;-81
2022/03/24 11:06:22;;;;;;;0.10;0.10;;;15.30;99.90;;;;;;5112513;28;20039;-85
2022/03/24 11:08:54;;;;;;;0.32;0.32;;;15.50;99.90;;;;;;5096004;28;20581;-81
2022/03/24 11:11:22;;;;;;;1.30;0.70;;;15.60;99.80;;;;;;5097826;28;20048;-85
2022/03/24 11:13:52;;;;;;;1.58;1.02;;;15.60;99.30;;;;;;5095941;28;20043;-81
2022/03/24 11:16:25;;;;;;;1.13;0.65;;;15.70;99.90;;;;;;5095291;28;20043;-81
2022/03/24 11:18:54;;;;;;;1.80;0.80;;;15.70;98.60;;;;;;5092376;28;20125;-80
2022/03/24 11:21:29;;;;;;;1.17;0.60;;;15.70;97.70;;;;;;5070198;28;20431;-85
2022/03/24 11:23:56;;;;;;;0.77;0.47;;;15.70;96.90;;;;;;5112199;28;20044;-81
2022/03/24 11:26:24;;;;;;;1.75;0.85;;;15.70;96.70;;;;;;5078853;28;20084;-80
2022/03/24 11:28:56;;;;;;;1.15;0.45;;;15.70;98.80;;;;;;5111974;28;20040;-86
2022/03/24 11:31:24;;;;;;;1.92;0.57;;;15.70;95.80;;;;;;5112379;28;20036;-86
2022/03/24 11:33:54;;;;;;;0.20;0.20;;;15.70;96.50;;;;;;5095901;28;20048;-86
2022/03/24 11:36:22;;;;;;;0.85;0.50;;;15.80;95.60;;;;;;5111731;28;20150;-85
2022/03/24 11:38:51;;;;;;;1.25;0.50;;;15.80;96.00;;;;;;5127892;28;20093;-80
2022/03/24 11:41:34;;;;;;;1.02;0.57;;;15.90;97.40;;;;;;5095445;28;20042;-80
2022/03/24 11:44:29;;;;;;;0.73;0.45;;;16.00;94.90;;;;;;5111444;28;20118;-81
2022/03/24 11:47:01;;;;;;;0.63;0.43;;;16.00;97.20;;;;;;5067458;28;20052;-80
2022/03/24 11:49:30;;;;;;;1.23;0.68;;;16.10;96.70;;;;;;5111815;28;20035;-80
2022/03/24 11:51:57;;;;;;;1.65;0.85;;;16.10;93.30;;;;;;5111517;28;20039;-84
2022/03/24 11:54:35;;;;;;;5.00;0.77;;;16.10;94.30;;;;;;5111615;28;20381;-84
2022/03/24 11:57:39;;;;;;;2.53;0.82;;;16.20;95.50;;;;;;5081699;28;20090;-81
2022/03/24 12:00:15;;;;;;;0.68;0.50;;;16.20;92.90;;;;;;5076223;28;20047;-84
2022/03/24 12:02:49;;;;;;;0.95;0.47;;;16.30;93.30;;;;;;5090965;28;20105;-81
2022/03/24 12:05:16;;;;;;;1.35;0.68;;;16.30;93.00;;;;;;5074882;28;20044;-84
2022/03/24 12:07:44;;;;;;;1.25;0.57;;;16.30;93.80;;;;;;5058203;28;20036;-83
2022/03/24 12:10:13;;;;;;;1.20;0.70;;;16.30;92.60;;;;;;5091057;28;20570;-81
2022/03/24 12:13:01;;;;;;;4.35;1.02;;;16.20;91.60;;;;;;5089345;28;20378;-82
2022/03/24 12:15:27;;;;;;;1.13;0.57;;;16.20;91.50;;;;;;5078608;28;20081;-81
2022/03/24 12:18:06;;;;;;;1.15;0.63;;;16.30;92.20;;;;;;5074678;28;20505;-81
2022/03/24 12:20:44;;;;;;;2.17;0.75;;;16.30;87.90;;;;;;5077363;28;20104;-81
2022/03/24 12:23:11;;;;;;;2.17;0.98;;;16.20;85.70;;;;;;5075657;28;20128;-80
2022/03/24 12:25:39;;;;;;;0.50;0.30;;;16.20;85.60;;;;;;5094189;28;20120;-81
2022/03/24 12:28:12;;;;;;;1.42;0.65;;;16.20;81.60;;;;;;5062082;28;20035;-87
2022/03/24 12:30:44;;;;;;;2.70;1.17;;;16.20;75.40;;;;;;5111308;28;20123;-83
2022/03/24 12:33:13;;;;;;;2.45;1.08;;;16.20;74.50;;;;;;5111079;28;20520;-81
2022/03/24 12:35:40;;;;;;;3.05;1.27;;;16.30;82.10;;;;;;5110669;28;20040;-82
2022/03/24 12:38:30;;;;;;;0.68;0.50;;;16.30;78.20;;;;;;5096785;28;20097;-87
2022/03/24 12:41:02;;;;;;;2.53;0.60;;;16.30;80.30;;;;;;5073864;28;20067;-82
2022/03/24 12:43:38;;;;;;;1.55;0.65;;;16.30;83.70;;;;;;5092993;28;20094;-87
2022/03/24 12:46:27;;;;;;;1.70;0.88;;;16.40;82.50;;;;;;5088490;28;20117;-82
2022/03/24 12:49:00;;;;;;;1.50;0.85;;;16.50;84.40;;;;;;5104917;28;20044;-87
2022/03/24 12:51:29;;;;;;;1.35;0.77;;;16.50;86.00;;;;;;5057204;28;20040;-86
2022/03/24 12:54:00;;;;;;;0.95;0.57;;;16.50;81.60;;;;;;5059710;28;20037;-86
2022/03/24 12:56:29;;;;;;;1.05;0.57;;;16.40;84.50;;;;;;5101287;28;20747;-83
2022/03/24 12:59:01;;;;;;;1.27;0.55;;;16.40;84.20;;;;;;5110449;28;20074;-87
2022/03/24 13:01:28;;;;;;;1.85;0.75;;;16.30;77.90;;;;;;5093992;28;20043;-87
2022/03/24 13:04:00;;;;;;;2.33;1.23;;;16.40;87.30;;;;;;5076812;28;20052;-87